Aviation

FTHA31 MTPP 251700
TAF MTPP 251700Z 2518/2618 09014KT 9000 FEW028
TEMPO 2514/2518 09015G25KT
PROB30 TEMPO 2600/2604 4500 SHRA SCT022CB SCT040
BECMG 2606/2610 VRB02KT 9000 FEW020
TEMPO 2614/2617 09010G20KT=